Time;durP1;ratioP1;P1;durP2;ratioP2;P2;SDS_P1;SDS_P2;PMS_P1;PMS_P2;Temp;Humidity;BMP_temperature;BMP_pressure;BME280_temperature;BME280_humidity;BME280_pressure;Samples;Min_cycle;Max_cycle;Signal;HPM_P1;HPM_P2
2023/08/09 00:01:28;;;;;;;126.90;9.32;;;;;;;;;;5089184;27;20383;-51
2023/08/09 00:03:53;;;;;;;91.17;6.77;;;;;;;;;;5090039;27;20068;-51
2023/08/09 00:06:18;;;;;;;82.00;6.53;;;;;;;;;;5105459;27;20110;-51
2023/08/09 00:08:44;;;;;;;85.30;6.60;;;;;;;;;;5104573;27;20268;-52
2023/08/09 00:11:11;;;;;;;67.95;5.53;;;;;;;;;;5106318;27;20264;-52
2023/08/09 00:13:36;;;;;;;131.13;9.18;;;;;;;;;;5104083;27;20042;-51
2023/08/09 00:16:01;;;;;;;76.13;6.00;;;;;;;;;;5106229;27;20020;-51
2023/08/09 00:18:26;;;;;;;140.53;9.93;;;;;;;;;;5104063;27;20019;-52
2023/08/09 00:20:52;;;;;;;88.53;6.77;;;;;;;;;;5106540;27;20248;-52
2023/08/09 00:23:17;;;;;;;79.53;6.20;;;;;;;;;;5105367;27;20015;-52
2023/08/09 00:25:43;;;;;;;87.13;6.15;;;;;;;;;;5104086;27;20309;-52
2023/08/09 00:28:08;;;;;;;69.32;5.63;;;;;;;;;;5104420;27;20007;-51
2023/08/09 00:30:33;;;;;;;133.63;9.05;;;;;;;;;;5102433;27;20076;-51
2023/08/09 00:32:59;;;;;;;83.63;6.50;;;;;;;;;;5105555;27;20019;-51
2023/08/09 00:35:24;;;;;;;107.63;8.10;;;;;;;;;;5102814;27;20015;-51
2023/08/09 00:37:49;;;;;;;61.67;5.60;;;;;;;;;;5105593;27;20257;-51
2023/08/09 00:40:14;;;;;;;91.50;6.97;;;;;;;;;;5104761;27;20613;-51
2023/08/09 00:42:41;;;;;;;81.80;6.85;;;;;;;;;;5103160;27;20394;-51
2023/08/09 00:45:07;;;;;;;73.57;6.57;;;;;;;;;;5105401;27;20050;-51
2023/08/09 00:47:33;;;;;;;144.65;11.15;;;;;;;;;;5103995;27;20007;-51
2023/08/09 00:49:58;;;;;;;77.72;6.93;;;;;;;;;;5106049;27;20033;-51
2023/08/09 00:52:24;;;;;;;124.43;9.40;;;;;;;;;;5102977;27;20031;-51
2023/08/09 00:54:49;;;;;;;73.78;6.60;;;;;;;;;;5105237;27;20034;-51
2023/08/09 00:57:14;;;;;;;89.78;7.20;;;;;;;;;;5104196;27;20390;-51
2023/08/09 00:59:40;;;;;;;114.33;8.73;;;;;;;;;;5104059;27;20457;-51
2023/08/09 01:02:08;;;;;;;86.45;7.18;;;;;;;;;;5104480;27;20651;-51
2023/08/09 01:04:33;;;;;;;105.43;8.43;;;;;;;;;;5103066;27;20050;-51
2023/08/09 01:07:12;;;;;;;79.45;6.85;;;;;;;;;;5087656;28;20393;-51
2023/08/09 01:09:44;;;;;;;116.95;8.63;;;;;;;;;;5104466;27;20028;-51
2023/08/09 01:12:15;;;;;;;82.20;7.22;;;;;;;;;;5105022;27;20316;-51
2023/08/09 01:14:45;;;;;;;118.32;8.68;;;;;;;;;;5104016;27;20084;-52
2023/08/09 01:17:12;;;;;;;87.35;6.88;;;;;;;;;;5105436;27;20261;-51
2023/08/09 01:19:40;;;;;;;130.40;9.75;;;;;;;;;;5105105;27;20022;-51
2023/08/09 01:22:15;;;;;;;84.00;6.97;;;;;;;;;;5104568;27;20131;-51
2023/08/09 01:24:41;;;;;;;150.02;10.63;;;;;;;;;;5103450;27;20023;-52
2023/08/09 01:27:06;;;;;;;73.70;6.15;;;;;;;;;;5104411;27;20015;-51
2023/08/09 01:29:31;;;;;;;140.87;10.17;;;;;;;;;;5105462;27;20481;-52
2023/08/09 01:31:56;;;;;;;75.15;6.32;;;;;;;;;;5105213;27;20269;-51
2023/08/09 01:34:22;;;;;;;85.00;6.83;;;;;;;;;;5103777;27;20027;-51
2023/08/09 01:36:50;;;;;;;104.38;7.88;;;;;;;;;;5102655;27;20261;-52
2023/08/09 01:39:19;;;;;;;94.45;7.43;;;;;;;;;;5102294;27;20018;-51
2023/08/09 01:41:47;;;;;;;83.43;7.22;;;;;;;;;;5102730;27;20388;-51
2023/08/09 01:44:13;;;;;;;83.60;7.07;;;;;;;;;;5104350;27;20012;-52
2023/08/09 01:46:39;;;;;;;168.15;11.57;;;;;;;;;;5100936;27;20026;-51
2023/08/09 01:49:08;;;;;;;78.38;5.93;;;;;;;;;;5089323;27;20039;-50
2023/08/09 01:51:34;;;;;;;136.90;9.82;;;;;;;;;;5103704;27;20019;-50
2023/08/09 01:53:59;;;;;;;92.27;7.30;;;;;;;;;;5104199;27;20082;-50
2023/08/09 01:56:24;;;;;;;71.40;6.43;;;;;;;;;;5104405;27;20809;-51
2023/08/09 01:58:49;;;;;;;93.78;7.50;;;;;;;;;;5094347;27;20411;-50
2023/08/09 02:01:15;;;;;;;85.67;7.03;;;;;;;;;;5102010;27;20058;-50
2023/08/09 02:03:40;;;;;;;126.15;8.90;;;;;;;;;;5101143;27;20293;-51
2023/08/09 02:06:05;;;;;;;83.57;7.50;;;;;;;;;;5103622;27;20053;-50
2023/08/09 02:08:30;;;;;;;150.17;10.73;;;;;;;;;;5103609;27;20254;-51
2023/08/09 02:10:55;;;;;;;89.80;7.20;;;;;;;;;;5104138;27;20356;-50
2023/08/09 02:13:21;;;;;;;61.20;5.07;;;;;;;;;;5105086;27;20258;-50
2023/08/09 02:15:46;;;;;;;75.93;6.87;;;;;;;;;;5104929;27;20255;-50
2023/08/09 02:18:11;;;;;;;83.97;7.13;;;;;;;;;;5106395;27;20269;-50
2023/08/09 02:20:37;;;;;;;147.45;10.90;;;;;;;;;;5105854;27;20446;-50
2023/08/09 02:23:02;;;;;;;95.93;7.28;;;;;;;;;;5108248;27;20077;-50
2023/08/09 02:25:28;;;;;;;55.42;5.10;;;;;;;;;;5106632;27;20470;-50
2023/08/09 02:27:53;;;;;;;94.65;7.10;;;;;;;;;;5107378;27;20018;-50
2023/08/09 02:30:18;;;;;;;85.78;7.32;;;;;;;;;;5106024;27;20561;-50
2023/08/09 02:32:44;;;;;;;155.23;11.02;;;;;;;;;;5106412;27;20011;-50
2023/08/09 02:35:10;;;;;;;78.07;6.50;;;;;;;;;;5109030;27;20465;-49
2023/08/09 02:37:35;;;;;;;149.18;11.15;;;;;;;;;;5105332;27;20477;-50
2023/08/09 02:40:01;;;;;;;79.90;6.85;;;;;;;;;;5108154;27;20035;-50
2023/08/09 02:42:26;;;;;;;94.03;7.35;;;;;;;;;;5107975;27;20023;-50
2023/08/09 02:44:51;;;;;;;81.40;6.28;;;;;;;;;;5104254;27;20562;-50
2023/08/09 02:47:17;;;;;;;99.47;7.23;;;;;;;;;;5106872;27;20007;-50
2023/08/09 02:49:43;;;;;;;133.20;10.43;;;;;;;;;;5106249;27;20265;-51
2023/08/09 02:52:08;;;;;;;84.53;7.07;;;;;;;;;;5107625;27;20271;-50
2023/08/09 02:54:34;;;;;;;134.87;9.93;;;;;;;;;;5106228;27;20012;-50
2023/08/09 02:56:59;;;;;;;83.00;6.87;;;;;;;;;;5088496;27;20269;-50
2023/08/09 02:59:24;;;;;;;90.63;7.78;;;;;;;;;;5106396;27;20651;-52
2023/08/09 03:01:49;;;;;;;88.90;7.67;;;;;;;;;;5105169;27;20019;-52
2023/08/09 03:04:15;;;;;;;66.07;6.47;;;;;;;;;;5106743;27;20348;-52
2023/08/09 03:06:40;;;;;;;158.18;11.38;;;;;;;;;;5105679;27;20370;-52
2023/08/09 03:09:06;;;;;;;79.55;6.78;;;;;;;;;;5109621;27;20051;-50
2023/08/09 03:11:31;;;;;;;96.43;8.05;;;;;;;;;;5106039;27;20026;-50
2023/08/09 03:13:56;;;;;;;78.85;6.32;;;;;;;;;;5107284;27;20450;-51
2023/08/09 03:16:22;;;;;;;88.18;7.57;;;;;;;;;;5107164;27;20019;-50
2023/08/09 03:18:48;;;;;;;143.55;11.10;;;;;;;;;;5085628;27;20035;-50
2023/08/09 03:21:13;;;;;;;84.60;7.45;;;;;;;;;;5105419;27;20015;-50
2023/08/09 03:23:38;;;;;;;129.90;10.77;;;;;;;;;;5105597;27;20611;-50
2023/08/09 03:26:04;;;;;;;88.45;7.43;;;;;;;;;;5107252;27;20598;-50
2023/08/09 03:28:29;;;;;;;79.32;7.40;;;;;;;;;;5105909;27;20019;-50
2023/08/09 03:30:55;;;;;;;93.55;7.32;;;;;;;;;;5104418;27;20768;-52
2023/08/09 03:33:20;;;;;;;82.90;7.73;;;;;;;;;;5106448;27;20095;-52
2023/08/09 03:35:45;;;;;;;129.27;10.50;;;;;;;;;;5104393;27;21078;-50
2023/08/09 03:38:10;;;;;;;87.47;8.03;;;;;;;;;;5106825;27;20031;-52
2023/08/09 03:40:36;;;;;;;138.85;10.43;;;;;;;;;;5104895;27;20292;-52
2023/08/09 03:43:01;;;;;;;85.53;7.60;;;;;;;;;;5106988;27;20015;-51
2023/08/09 03:45:27;;;;;;;84.57;7.43;;;;;;;;;;5106571;27;20047;-52
2023/08/09 03:47:52;;;;;;;90.45;8.13;;;;;;;;;;5103721;27;20019;-51
2023/08/09 03:50:18;;;;;;;75.00;6.30;;;;;;;;;;5106600;27;20027;-52
2023/08/09 03:52:43;;;;;;;131.82;11.18;;;;;;;;;;5105731;27;20049;-52
2023/08/09 03:55:08;;;;;;;86.78;8.45;;;;;;;;;;5106568;27;20039;-52
2023/08/09 03:57:34;;;;;;;88.90;8.30;;;;;;;;;;5103071;27;20027;-52
2023/08/09 03:59:59;;;;;;;66.53;5.80;;;;;;;;;;5105659;27;20284;-52
2023/08/09 04:02:24;;;;;;;93.80;7.95;;;;;;;;;;5105173;27;20264;-52
2023/08/09 04:04:49;;;;;;;142.43;11.40;;;;;;;;;;5105733;27;20073;-51
2023/08/09 04:07:15;;;;;;;92.35;7.25;;;;;;;;;;5107258;27;20019;-51
2023/08/09 04:09:40;;;;;;;142.40;11.37;;;;;;;;;;5105907;27;20031;-51
2023/08/09 04:12:06;;;;;;;84.45;7.68;;;;;;;;;;5106785;27;20695;-52
2023/08/09 04:14:31;;;;;;;79.65;6.80;;;;;;;;;;5105928;27;20023;-52
2023/08/09 04:16:59;;;;;;;86.65;7.20;;;;;;;;;;5103480;27;20034;-51
2023/08/09 04:19:26;;;;;;;107.60;7.95;;;;;;;;;;5107372;27;20359;-51
2023/08/09 04:21:52;;;;;;;158.77;12.38;;;;;;;;;;5104629;27;20020;-51
2023/08/09 04:24:17;;;;;;;151.68;11.00;;;;;;;;;;5107159;27;20015;-52
2023/08/09 04:26:42;;;;;;;152.00;11.93;;;;;;;;;;5104251;27;20616;-53
2023/08/09 04:29:08;;;;;;;91.50;8.02;;;;;;;;;;5107487;27;20078;-51
2023/08/09 04:31:33;;;;;;;98.15;9.73;;;;;;;;;;5105869;27;20080;-50
2023/08/09 04:33:59;;;;;;;114.30;9.70;;;;;;;;;;5102349;27;20066;-52
2023/08/09 04:36:25;;;;;;;115.50;9.82;;;;;;;;;;5104171;27;20080;-54
2023/08/09 04:38:50;;;;;;;146.38;11.38;;;;;;;;;;5100255;27;20084;-52
2023/08/09 04:41:15;;;;;;;91.00;8.67;;;;;;;;;;5101959;27;20054;-53
2023/08/09 04:43:44;;;;;;;150.32;12.02;;;;;;;;;;5102972;27;20253;-54
2023/08/09 04:46:13;;;;;;;91.35;8.73;;;;;;;;;;5102026;27;20070;-52
2023/08/09 04:48:39;;;;;;;111.32;9.10;;;;;;;;;;5100665;27;20058;-52
2023/08/09 04:51:04;;;;;;;95.38;9.20;;;;;;;;;;5101699;27;20118;-52
2023/08/09 04:53:29;;;;;;;93.45;9.65;;;;;;;;;;5104591;27;20043;-52
2023/08/09 04:55:55;;;;;;;97.23;9.07;;;;;;;;;;5099532;27;20019;-52
2023/08/09 04:58:20;;;;;;;99.47;9.07;;;;;;;;;;5103097;27;20249;-51
2023/08/09 05:00:45;;;;;;;151.30;11.77;;;;;;;;;;5099788;27;20136;-53
2023/08/09 05:03:11;;;;;;;85.03;8.70;;;;;;;;;;5103325;27;20258;-52
2023/08/09 05:05:36;;;;;;;100.93;8.95;;;;;;;;;;5100494;27;20284;-51
2023/08/09 05:08:02;;;;;;;128.70;37.43;;;;;;;;;;5102666;27;20857;-52
2023/08/09 05:10:27;;;;;;;85.63;7.88;;;;;;;;;;5102825;27;20713;-52
2023/08/09 05:12:52;;;;;;;143.43;11.73;;;;;;;;;;5100830;27;20016;-53
2023/08/09 05:15:17;;;;;;;106.00;9.17;;;;;;;;;;5102572;27;20668;-51
2023/08/09 05:17:42;;;;;;;151.77;11.73;;;;;;;;;;5102225;27;20912;-52
2023/08/09 05:20:08;;;;;;;81.70;6.53;;;;;;;;;;5101298;27;20357;-54
2023/08/09 05:22:33;;;;;;;83.18;7.93;;;;;;;;;;5101528;27;20285;-51
2023/08/09 05:24:59;;;;;;;100.32;8.38;;;;;;;;;;5100947;27;20495;-54
2023/08/09 05:27:24;;;;;;;109.45;9.60;;;;;;;;;;5104045;27;20131;-53
2023/08/09 05:29:49;;;;;;;153.70;18.27;;;;;;;;;;5099123;27;20305;-54
2023/08/09 05:32:14;;;;;;;90.80;8.13;;;;;;;;;;5103626;27;20322;-52
2023/08/09 05:34:40;;;;;;;119.60;9.87;;;;;;;;;;5101578;27;20047;-52
2023/08/09 05:37:05;;;;;;;96.68;8.40;;;;;;;;;;5101099;27;20761;-51
2023/08/09 05:39:31;;;;;;;95.05;8.57;;;;;;;;;;5102118;27;20606;-52
2023/08/09 05:41:56;;;;;;;165.45;12.50;;;;;;;;;;5098929;27;20040;-51
2023/08/09 05:44:22;;;;;;;98.20;8.60;;;;;;;;;;5102810;27;20401;-51
2023/08/09 05:46:47;;;;;;;142.75;11.55;;;;;;;;;;5099219;27;20023;-51
2023/08/09 05:49:12;;;;;;;76.93;7.43;;;;;;;;;;5101599;27;20412;-52
2023/08/09 05:51:37;;;;;;;103.50;8.70;;;;;;;;;;5101352;27;20269;-52
2023/08/09 05:54:03;;;;;;;93.45;8.80;;;;;;;;;;5101523;27;20023;-52
2023/08/09 05:56:28;;;;;;;60.53;6.28;;;;;;;;;;5101467;27;20032;-54
2023/08/09 05:58:53;;;;;;;175.13;13.07;;;;;;;;;;5098064;27;20031;-53
2023/08/09 06:01:21;;;;;;;75.35;7.50;;;;;;;;;;5081578;28;20282;-52
2023/08/09 06:03:47;;;;;;;141.68;10.75;;;;;;;;;;5082635;28;20381;-52
2023/08/09 06:06:12;;;;;;;94.15;8.15;;;;;;;;;;5081472;28;20029;-52
2023/08/09 06:08:37;;;;;;;72.13;7.18;;;;;;;;;;5080403;28;20035;-51
2023/08/09 06:11:03;;;;;;;94.30;8.03;;;;;;;;;;5078978;28;20028;-54
2023/08/09 06:13:28;;;;;;;98.13;8.00;;;;;;;;;;5083387;28;20556;-53
2023/08/09 06:15:54;;;;;;;173.30;12.23;;;;;;;;;;5078771;28;20040;-52
2023/08/09 06:18:19;;;;;;;91.77;8.30;;;;;;;;;;5079690;28;20374;-53
2023/08/09 06:20:44;;;;;;;154.70;12.57;;;;;;;;;;5080798;28;20524;-53
2023/08/09 06:23:10;;;;;;;75.20;6.97;;;;;;;;;;5082393;28;20281;-53
2023/08/09 06:25:35;;;;;;;89.15;7.93;;;;;;;;;;5081869;28;20032;-53
2023/08/09 06:28:00;;;;;;;91.15;8.20;;;;;;;;;;5079840;28;20028;-52
2023/08/09 06:30:26;;;;;;;89.83;8.37;;;;;;;;;;5080207;28;20046;-52
2023/08/09 06:32:51;;;;;;;150.93;12.85;;;;;;;;;;5078982;28;20254;-53
2023/08/09 06:35:17;;;;;;;154.13;14.00;;;;;;;;;;5081496;28;20012;-53
2023/08/09 06:37:42;;;;;;;154.23;15.32;;;;;;;;;;5079968;28;20061;-51
2023/08/09 06:40:08;;;;;;;187.18;16.40;;;;;;;;;;5082988;28;20089;-53
2023/08/09 06:42:33;;;;;;;182.60;16.02;;;;;;;;;;5081829;28;20107;-53
2023/08/09 06:44:58;;;;;;;219.82;19.42;;;;;;;;;;5079490;28;20070;-52
2023/08/09 06:47:24;;;;;;;173.68;15.90;;;;;;;;;;5081879;28;20490;-54
2023/08/09 06:49:49;;;;;;;149.70;11.47;;;;;;;;;;5080127;28;20097;-55
2023/08/09 06:52:14;;;;;;;119.33;12.10;;;;;;;;;;5079313;28;20281;-51
2023/08/09 06:54:39;;;;;;;119.33;11.30;;;;;;;;;;5081779;28;20612;-52
2023/08/09 06:57:04;;;;;;;116.15;12.48;;;;;;;;;;5063583;28;20282;-53
2023/08/09 06:59:30;;;;;;;149.70;13.13;;;;;;;;;;5082179;28;20028;-53
2023/08/09 07:01:55;;;;;;;163.60;13.55;;;;;;;;;;5076655;28;20462;-51
2023/08/09 07:04:20;;;;;;;80.80;9.75;;;;;;;;;;5087763;28;20019;-52
2023/08/09 07:06:46;;;;;;;136.68;13.00;;;;;;;;;;5086677;28;20401;-52
2023/08/09 07:09:12;;;;;;;72.97;8.30;;;;;;;;;;5087878;28;20032;-53
2023/08/09 07:11:37;;;;;;;65.53;7.53;;;;;;;;;;5087704;27;20036;-54
2023/08/09 07:14:02;;;;;;;81.88;8.25;;;;;;;;;;5066210;28;21192;-52
2023/08/09 07:16:28;;;;;;;55.90;6.68;;;;;;;;;;5087806;28;20039;-53
2023/08/09 07:18:53;;;;;;;133.63;11.20;;;;;;;;;;5086123;28;20634;-52
2023/08/09 07:21:18;;;;;;;76.80;6.57;;;;;;;;;;5089281;28;20990;-52
2023/08/09 07:23:43;;;;;;;63.03;6.22;;;;;;;;;;5087519;28;20049;-53
2023/08/09 07:26:09;;;;;;;57.17;6.05;;;;;;;;;;5088443;28;20023;-53
2023/08/09 07:28:34;;;;;;;84.23;7.27;;;;;;;;;;5087507;28;20008;-52
2023/08/09 07:30:59;;;;;;;105.60;9.67;;;;;;;;;;5086807;28;20272;-52
2023/08/09 07:33:25;;;;;;;70.78;7.32;;;;;;;;;;5088465;28;20257;-52
2023/08/09 07:35:50;;;;;;;123.25;10.52;;;;;;;;;;5086464;28;20055;-54
2023/08/09 07:38:16;;;;;;;65.93;6.68;;;;;;;;;;5087975;28;20786;-54
2023/08/09 07:40:41;;;;;;;65.43;7.10;;;;;;;;;;5086822;28;20071;-54
2023/08/09 07:43:06;;;;;;;65.37;6.20;;;;;;;;;;5087882;28;20050;-54
2023/08/09 07:45:31;;;;;;;69.57;6.75;;;;;;;;;;5087658;28;20345;-53
2023/08/09 07:47:57;;;;;;;127.70;10.75;;;;;;;;;;5086038;28;20057;-54
2023/08/09 07:50:22;;;;;;;81.70;7.57;;;;;;;;;;5070953;28;20016;-54
2023/08/09 07:52:48;;;;;;;67.97;6.22;;;;;;;;;;5087657;28;20701;-54
2023/08/09 07:55:13;;;;;;;62.20;6.35;;;;;;;;;;5088975;28;20038;-52
2023/08/09 07:57:38;;;;;;;65.22;7.78;;;;;;;;;;5086085;28;20013;-55
2023/08/09 08:00:11;;;;;;;125.60;10.45;;;;;;;;;;5087100;28;20081;-54
2023/08/09 08:02:37;;;;;;;70.72;6.72;;;;;;;;;;5075066;28;20764;-54
2023/08/09 08:05:02;;;;;;;121.72;10.40;;;;;;;;;;5087509;28;20060;-53
2023/08/09 08:07:28;;;;;;;58.80;6.32;;;;;;;;;;5087498;28;20027;-54
2023/08/09 08:09:53;;;;;;;144.32;11.80;;;;;;;;;;5086106;28;20016;-54
2023/08/09 08:12:18;;;;;;;65.03;6.73;;;;;;;;;;5088582;28;20044;-55
2023/08/09 08:14:43;;;;;;;62.67;6.72;;;;;;;;;;5087726;28;20265;-54
2023/08/09 08:17:09;;;;;;;67.68;7.15;;;;;;;;;;5085534;28;20923;-54
2023/08/09 08:19:34;;;;;;;62.93;8.43;;;;;;;;;;5086658;28;20302;-53
2023/08/09 08:21:59;;;;;;;134.23;11.70;;;;;;;;;;5085895;28;20300;-53
2023/08/09 08:24:25;;;;;;;77.40;8.35;;;;;;;;;;5086536;28;20024;-52
2023/08/09 08:26:53;;;;;;;122.17;10.87;;;;;;;;;;5085239;28;20035;-56
2023/08/09 08:29:19;;;;;;;83.75;9.43;;;;;;;;;;5085851;28;20270;-52
2023/08/09 08:31:44;;;;;;;76.28;8.60;;;;;;;;;;5087273;28;20421;-54
2023/08/09 08:34:09;;;;;;;76.37;9.40;;;;;;;;;;5085972;28;20104;-54
2023/08/09 08:36:35;;;;;;;63.60;8.57;;;;;;;;;;5085399;28;20268;-53
2023/08/09 08:39:01;;;;;;;147.98;12.75;;;;;;;;;;5086611;28;20541;-53
2023/08/09 08:41:27;;;;;;;85.18;8.65;;;;;;;;;;5086454;28;20037;-53
2023/08/09 08:43:53;;;;;;;87.22;9.68;;;;;;;;;;5086168;28;20724;-53
2023/08/09 08:46:20;;;;;;;71.97;7.80;;;;;;;;;;5084834;28;20023;-54
2023/08/09 08:48:48;;;;;;;81.45;8.88;;;;;;;;;;5088028;28;20047;-53
2023/08/09 08:51:14;;;;;;;61.10;7.20;;;;;;;;;;5084759;28;20069;-54
2023/08/09 08:53:39;;;;;;;82.05;8.65;;;;;;;;;;5070472;28;20103;-52
2023/08/09 08:56:05;;;;;;;107.47;10.20;;;;;;;;;;5084516;27;20559;-53
2023/08/09 08:58:30;;;;;;;67.57;9.43;;;;;;;;;;5069723;28;20146;-53
2023/08/09 09:00:55;;;;;;;136.90;12.05;;;;;;;;;;5083669;28;20032;-53
2023/08/09 09:03:21;;;;;;;71.70;7.83;;;;;;;;;;5086378;28;20611;-54
2023/08/09 09:05:46;;;;;;;70.57;7.68;;;;;;;;;;5085782;28;20278;-53
2023/08/09 09:08:13;;;;;;;105.57;15.57;;;;;;;;;;5085954;28;20028;-55
2023/08/09 09:10:43;;;;;;;56.05;5.93;;;;;;;;;;5085694;28;20261;-54
2023/08/09 09:13:08;;;;;;;129.13;13.25;;;;;;;;;;5085742;28;20042;-53
2023/08/09 09:15:35;;;;;;;77.20;13.27;;;;;;;;;;5084205;28;20563;-55
2023/08/09 09:18:04;;;;;;;121.55;15.43;;;;;;;;;;5084188;28;20702;-53
2023/08/09 09:20:31;;;;;;;75.65;8.13;;;;;;;;;;5084918;28;20054;-54
2023/08/09 09:22:56;;;;;;;134.23;12.13;;;;;;;;;;5066714;28;20028;-54
2023/08/09 09:25:22;;;;;;;62.70;7.50;;;;;;;;;;5084626;28;20024;-54
2023/08/09 09:27:49;;;;;;;73.70;7.93;;;;;;;;;;5085698;28;20259;-52
2023/08/09 09:30:15;;;;;;;76.93;8.30;;;;;;;;;;5083040;28;20016;-53
2023/08/09 09:32:49;;;;;;;65.13;7.20;;;;;;;;;;5085596;28;20061;-53
2023/08/09 09:35:19;;;;;;;79.60;7.07;;;;;;;;;;5084790;28;20012;-54
2023/08/09 09:37:47;;;;;;;65.57;7.00;;;;;;;;;;5077368;28;20008;-53
2023/08/09 09:40:21;;;;;;;78.18;8.43;;;;;;;;;;5082907;28;20665;-55
2023/08/09 09:42:50;;;;;;;59.30;6.28;;;;;;;;;;5087204;28;20015;-55
2023/08/09 09:45:19;;;;;;;67.60;6.53;;;;;;;;;;5084336;28;20677;-53
2023/08/09 09:47:45;;;;;;;74.47;7.03;;;;;;;;;;5067723;28;20527;-54
2023/08/09 09:50:10;;;;;;;117.95;9.88;;;;;;;;;;5083397;28;20122;-55
2023/08/09 09:52:36;;;;;;;75.80;10.48;;;;;;;;;;5084650;28;20032;-53
2023/08/09 09:55:02;;;;;;;124.03;10.23;;;;;;;;;;5083626;28;20676;-54
2023/08/09 09:57:27;;;;;;;55.53;6.10;;;;;;;;;;5085354;28;20261;-53
2023/08/09 09:59:57;;;;;;;79.68;7.35;;;;;;;;;;5087421;28;20141;-54
2023/08/09 10:02:22;;;;;;;67.95;6.55;;;;;;;;;;5085749;28;20121;-53
2023/08/09 10:04:48;;;;;;;71.03;12.57;;;;;;;;;;5070468;28;20480;-53
2023/08/09 10:07:14;;;;;;;65.40;5.82;;;;;;;;;;5084365;28;20040;-54
2023/08/09 10:09:39;;;;;;;65.63;7.15;;;;;;;;;;5086683;28;20103;-55
2023/08/09 10:12:06;;;;;;;109.90;11.10;;;;;;;;;;5082782;28;20076;-52
2023/08/09 10:14:32;;;;;;;190.88;153.52;;;;;;;;;;5084484;28;20261;-53
2023/08/09 10:16:59;;;;;;;75.75;12.30;;;;;;;;;;5082050;28;20038;-54
2023/08/09 10:19:25;;;;;;;89.00;29.83;;;;;;;;;;5086422;28;20019;-54
2023/08/09 10:21:53;;;;;;;75.80;6.20;;;;;;;;;;5083983;28;20285;-53
2023/08/09 10:24:18;;;;;;;58.05;5.78;;;;;;;;;;5085234;28;20008;-53
2023/08/09 10:26:46;;;;;;;81.57;6.88;;;;;;;;;;5082930;28;20035;-54
2023/08/09 10:29:12;;;;;;;105.78;8.88;;;;;;;;;;5064960;28;20561;-54
2023/08/09 10:31:48;;;;;;;64.22;6.20;;;;;;;;;;5084799;28;20595;-53
2023/08/09 10:34:43;;;;;;;124.55;9.57;;;;;;;;;;5083728;28;20157;-54
2023/08/09 10:37:12;;;;;;;115.57;9.73;;;;;;;;;;5065297;28;20466;-53
2023/08/09 10:39:38;;;;;;;73.20;6.60;;;;;;;;;;5090109;28;20488;-54
2023/08/09 10:42:09;;;;;;;118.80;9.55;;;;;;;;;;5087617;28;20590;-52
2023/08/09 10:44:35;;;;;;;72.93;7.10;;;;;;;;;;5088641;28;20015;-54
2023/08/09 10:47:02;;;;;;;118.83;10.40;;;;;;;;;;5086848;27;20031;-54
2023/08/09 10:49:43;;;;;;;68.75;7.20;;;;;;;;;;5088702;28;20101;-54
2023/08/09 10:52:15;;;;;;;135.77;11.65;;;;;;;;;;5087921;28;20050;-52
2023/08/09 10:54:40;;;;;;;78.85;7.65;;;;;;;;;;5087725;28;20622;-53
2023/08/09 10:57:08;;;;;;;116.70;9.65;;;;;;;;;;5085291;28;20653;-53
2023/08/09 10:59:34;;;;;;;62.30;7.78;;;;;;;;;;5070682;28;20047;-54
2023/08/09 11:01:59;;;;;;;111.45;12.88;;;;;;;;;;5086093;28;20181;-55
2023/08/09 11:04:24;;;;;;;79.43;8.20;;;;;;;;;;5089715;28;20016;-55
2023/08/09 11:06:49;;;;;;;81.83;8.30;;;;;;;;;;5086536;28;20528;-55
2023/08/09 11:09:15;;;;;;;135.65;11.70;;;;;;;;;;5087529;28;20931;-56
2023/08/09 11:11:41;;;;;;;68.37;8.37;;;;;;;;;;5088312;28;20057;-53
2023/08/09 11:14:07;;;;;;;106.78;10.07;;;;;;;;;;5088843;27;20577;-53
2023/08/09 11:16:32;;;;;;;57.67;6.93;;;;;;;;;;5087202;28;20178;-54
2023/08/09 11:19:05;;;;;;;79.20;7.75;;;;;;;;;;5087021;28;20505;-53
2023/08/09 11:21:37;;;;;;;60.53;6.50;;;;;;;;;;5088109;28;20027;-54
2023/08/09 11:24:02;;;;;;;107.25;9.23;;;;;;;;;;5087220;28;20085;-54
2023/08/09 11:26:28;;;;;;;67.88;6.40;;;;;;;;;;5088371;28;20039;-54
2023/08/09 11:28:54;;;;;;;77.70;8.10;;;;;;;;;;5088462;28;20023;-55
2023/08/09 11:31:19;;;;;;;52.63;5.80;;;;;;;;;;5086552;28;20968;-54
2023/08/09 11:33:44;;;;;;;65.95;6.57;;;;;;;;;;5088000;28;20023;-55
2023/08/09 11:36:10;;;;;;;82.60;6.97;;;;;;;;;;5085339;28;20036;-54
2023/08/09 11:38:36;;;;;;;64.22;5.95;;;;;;;;;;5089207;28;20261;-55
2023/08/09 11:41:01;;;;;;;87.40;7.28;;;;;;;;;;5086407;28;20036;-54
2023/08/09 11:43:26;;;;;;;50.73;5.50;;;;;;;;;;5072061;28;20575;-55
2023/08/09 11:45:53;;;;;;;68.23;6.40;;;;;;;;;;5087441;28;20277;-54
2023/08/09 11:48:22;;;;;;;114.43;12.25;;;;;;;;;;5086774;27;20270;-53
2023/08/09 11:50:57;;;;;;;63.25;5.55;;;;;;;;;;5087691;28;20036;-54
2023/08/09 11:53:22;;;;;;;75.28;11.30;;;;;;;;;;5086849;28;20024;-53
2023/08/09 11:55:47;;;;;;;59.95;7.47;;;;;;;;;;5086168;28;20034;-53
2023/08/09 11:58:13;;;;;;;108.78;9.10;;;;;;;;;;5087157;28;20026;-55
2023/08/09 12:00:40;;;;;;;84.07;24.00;;;;;;;;;;5087463;28;20032;-53
2023/08/09 12:03:06;;;;;;;153.77;63.95;;;;;;;;;;5084872;28;20117;-54
2023/08/09 12:05:32;;;;;;;59.22;9.00;;;;;;;;;;5085602;28;20113;-56
2023/08/09 12:08:03;;;;;;;126.72;62.78;;;;;;;;;;5086163;28;20485;-54
2023/08/09 12:10:28;;;;;;;120.95;89.32;;;;;;;;;;5086984;28;20433;-53
2023/08/09 12:12:53;;;;;;;60.57;5.37;;;;;;;;;;5087334;28;20072;-52
2023/08/09 12:15:19;;;;;;;129.63;17.10;;;;;;;;;;5084829;28;20261;-52
2023/08/09 12:17:45;;;;;;;108.07;59.10;;;;;;;;;;5086249;28;20707;-54
2023/08/09 12:20:11;;;;;;;120.63;19.70;;;;;;;;;;5085357;28;21091;-55
2023/08/09 12:22:37;;;;;;;141.80;76.27;;;;;;;;;;5088166;28;20020;-55
2023/08/09 12:25:03;;;;;;;81.97;23.00;;;;;;;;;;5085388;28;20266;-53
2023/08/09 12:27:28;;;;;;;70.22;29.02;;;;;;;;;;5086720;28;20020;-55
2023/08/09 12:29:53;;;;;;;123.15;57.33;;;;;;;;;;5086861;28;20031;-54
2023/08/09 12:32:19;;;;;;;136.67;37.23;;;;;;;;;;5084663;28;20063;-55
2023/08/09 12:34:44;;;;;;;364.88;327.80;;;;;;;;;;5087389;28;20630;-54
2023/08/09 12:37:11;;;;;;;98.63;12.23;;;;;;;;;;5085495;28;20036;-53
2023/08/09 12:39:36;;;;;;;64.13;15.68;;;;;;;;;;5087632;28;20027;-54
2023/08/09 12:42:01;;;;;;;138.60;106.60;;;;;;;;;;5072256;28;20023;-54
2023/08/09 12:44:27;;;;;;;103.25;43.70;;;;;;;;;;5084906;28;20319;-53
2023/08/09 12:46:52;;;;;;;209.82;122.78;;;;;;;;;;5067638;28;20028;-55
2023/08/09 12:49:18;;;;;;;107.72;7.47;;;;;;;;;;5071975;28;20649;-52
2023/08/09 12:51:43;;;;;;;97.60;41.63;;;;;;;;;;5085992;28;20172;-53
2023/08/09 12:54:09;;;;;;;143.10;61.22;;;;;;;;;;5085735;28;20012;-53
2023/08/09 12:56:34;;;;;;;140.30;109.75;;;;;;;;;;5084496;28;20477;-54
2023/08/09 12:58:59;;;;;;;168.98;96.68;;;;;;;;;;5066729;28;20038;-53
2023/08/09 13:01:25;;;;;;;220.15;175.90;;;;;;;;;;5082294;27;20047;-52
2023/08/09 13:03:51;;;;;;;179.25;109.68;;;;;;;;;;5087220;28;20023;-53
2023/08/09 13:06:17;;;;;;;133.52;29.65;;;;;;;;;;5084895;28;20135;-55
2023/08/09 13:08:43;;;;;;;94.95;23.90;;;;;;;;;;5087066;28;20023;-54
2023/08/09 13:11:09;;;;;;;270.95;210.48;;;;;;;;;;5082776;28;20359;-55
2023/08/09 13:13:35;;;;;;;446.63;405.25;;;;;;;;;;5084423;28;20499;-55
2023/08/09 13:16:00;;;;;;;184.95;135.30;;;;;;;;;;5086397;28;20036;-54
2023/08/09 13:18:25;;;;;;;317.42;283.25;;;;;;;;;;5084180;28;20019;-55
2023/08/09 13:20:51;;;;;;;331.10;297.60;;;;;;;;;;5084099;28;20086;-54
2023/08/09 13:23:17;;;;;;;321.25;272.83;;;;;;;;;;5085394;28;20047;-54
2023/08/09 13:25:42;;;;;;;233.35;111.07;;;;;;;;;;5085946;28;20080;-55
2023/08/09 13:28:09;;;;;;;135.77;76.07;;;;;;;;;;5085076;28;20045;-56
2023/08/09 13:30:35;;;;;;;275.52;245.82;;;;;;;;;;5085312;28;20269;-54
2023/08/09 13:33:00;;;;;;;361.63;323.23;;;;;;;;;;5083252;28;20028;-53
2023/08/09 13:35:26;;;;;;;169.75;110.00;;;;;;;;;;5084531;28;20036;-54
2023/08/09 13:37:51;;;;;;;246.02;191.60;;;;;;;;;;5084534;28;20028;-55
2023/08/09 13:40:16;;;;;;;320.60;209.73;;;;;;;;;;5081362;28;20034;-54
2023/08/09 13:42:43;;;;;;;317.08;284.75;;;;;;;;;;5085670;28;20266;-54
2023/08/09 13:45:08;;;;;;;396.05;353.92;;;;;;;;;;5085038;28;20016;-54
2023/08/09 13:47:34;;;;;;;229.98;164.20;;;;;;;;;;5086032;28;20012;-55
2023/08/09 13:50:00;;;;;;;135.90;86.45;;;;;;;;;;5084020;28;20081;-54
2023/08/09 13:52:25;;;;;;;114.65;23.85;;;;;;;;;;5084529;28;20032;-55
2023/08/09 13:54:51;;;;;;;274.70;245.10;;;;;;;;;;5083920;28;20024;-54
2023/08/09 13:57:16;;;;;;;349.92;251.30;;;;;;;;;;5082267;28;20039;-54
2023/08/09 13:59:42;;;;;;;339.48;265.38;;;;;;;;;;5084483;28;20027;-53
2023/08/09 14:02:07;;;;;;;368.85;332.67;;;;;;;;;;5084362;28;20085;-53
2023/08/09 14:04:32;;;;;;;264.42;233.50;;;;;;;;;;5085316;28;20016;-55
2023/08/09 14:06:59;;;;;;;352.92;298.65;;;;;;;;;;5087402;28;20043;-54
2023/08/09 14:09:25;;;;;;;340.13;264.70;;;;;;;;;;5083571;28;20044;-56
2023/08/09 14:11:51;;;;;;;415.17;374.13;;;;;;;;;;5085694;28;20103;-55